CDT,Max TemperatureF,Mean TemperatureF,Min TemperatureF,Max Dew PointF,MeanDew PointF,Min DewpointF,Max Humidity, Mean Humidity, Min Humidity, Max Sea Level PressureIn, Mean Sea Level PressureIn, Min Sea Level PressureIn, Max VisibilityMiles, Mean VisibilityMiles, Min VisibilityMiles, Max Wind SpeedMPH, Mean Wind SpeedMPH, Max Gust SpeedMPH,PrecipitationIn, CloudCover, Events, WindDirDegrees
2013-3-1,59,50,41,37,33,28,77,55,30,30.18,30.10,30.01,10,10,10,16,6,24,0.00,3,,330
2013-3-2,48,41,34,30,27,24,79,55,43,30.26,30.18,30.12,10,10,10,20,9,24,0.00,5,,343
2013-3-3,55,42,30,39,25,18,79,53,24,30.28,30.21,30.16,10,10,10,12,7,,0.00,0,,314
2013-3-4,62,52,41,55,47,38,93,73,49,30.18,30.10,29.99,10,10,10,15,8,20,0.00,3,,178
2013-3-5,72,62,50,60,54,41,88,73,41,30.19,30.04,29.96,10,10,10,18,11,18,0.00,4,,236
2013-3-6,62,52,42,41,30,24,74,46,26,30.31,30.24,30.18,10,10,10,15,9,21,0.00,0,,351
2013-3-7,56,47,38,43,36,31,80,64,43,30.37,30.29,30.25,10,10,9,14,7,,0.00,1,,357
2013-3-8,64,52,41,51,43,37,92,69,37,30.32,30.26,30.22,10,10,10,12,4,,0.00,1,,252
2013-3-9,67,58,49,60,52,45,100,82,51,30.21,30.15,30.02,10,9,5,16,5,25,0.00,5,,102
2013-3-10,72,68,63,63,62,59,90,83,69,30.04,29.98,29.92,10,10,10,18,12,30,0.00,6,,126
2013-3-11,66,58,48,65,53,42,94,86,62,30.02,29.91,29.84,10,9,2,20,11,25,0.10,6,Rain,337
2013-3-12,72,56,42,43,37,33,80,56,27,30.20,30.12,30.02,10,10,10,13,9,,0.00,0,,353
2013-3-13,66,56,46,38,29,21,68,38,19,30.38,30.31,30.22,10,10,10,17,8,24,0.00,0,,349
2013-3-14,65,52,40,47,31,19,83,48,21,30.46,30.38,30.32,10,10,10,16,8,,0.00,0,,343
2013-3-15,67,58,48,53,47,44,93,72,46,30.32,30.25,30.16,10,9,3,14,5,,0.00,0,,230
2013-3-16,73,63,54,60,57,53,95,78,59,30.14,30.07,30.01,10,10,3,13,10,21,0.00,0,,211
2013-3-17,72,64,58,63,60,57,96,84,64,30.01,29.95,29.89,10,10,10,12,6,17,0.00,4,,156
2013-3-18,76,70,65,68,66,60,100,89,76,29.93,29.88,29.80,10,9,1,13,9,20,0.00,6,,167
2013-3-19,75,65,55,68,60,47,100,85,46,30.05,29.95,29.87,10,8,1,18,6,24,0.05,5,Rain,68
2013-3-20,67,60,51,44,37,31,63,46,28,30.14,30.06,29.99,10,10,10,17,9,23,0.00,3,Rain,13
2013-3-21,64,53,44,42,35,30,63,48,31,30.08,30.00,29.90,10,10,10,13,7,,0.00,4,,94
2013-3-22,66,58,51,60,55,44,84,76,64,29.92,29.87,29.83,10,10,7,20,11,28,0.01,8,Rain,110
2013-3-23,74,68,62,70,66,58,100,90,78,29.88,29.72,29.60,10,8,2,15,9,18,0.03,8,Rain-Thunderstorm,138
2013-3-24,78,64,49,68,61,31,100,84,35,29.98,29.65,29.58,10,7,1,15,10,21,0.00,5,,260
2013-3-25,60,48,38,33,26,19,71,44,21,30.25,30.12,30.00,10,10,10,18,10,28,0.00,0,,337
2013-3-26,57,46,36,28,25,22,65,45,27,30.39,30.33,30.27,10,10,10,15,10,21,0.00,0,,352
2013-3-27,56,45,35,42,32,26,80,58,36,30.46,30.38,30.32,10,10,10,12,7,,0.00,0,,32
2013-3-28,64,52,39,49,42,36,93,68,35,30.38,30.33,30.28,10,10,6,14,4,,0.00,0,,207
2013-3-29,67,54,42,58,48,42,100,88,47,30.35,30.29,30.23,10,7,0,10,3,,0.00,1,Fog,84
2013-3-30,73,63,53,61,56,53,100,83,50,30.21,30.15,30.06,10,8,0,13,3,,0.00,1,Fog,199
2013-3-31,74,66,59,66,62,59,100,89,72,30.07,29.99,29.87,10,8,1,16,7,,0.00,5,Rain-Thunderstorm,213